sensor_id;sensor_type;location;lat;lon;timestamp;temperature;humidity
11426;DHT22;5769;47.998;7.788;2022-10-19T00:01:43;20.70;75.60
11426;DHT22;5769;47.998;7.788;2022-10-19T00:04:10;20.70;75.60
11426;DHT22;5769;47.998;7.788;2022-10-19T00:06:37;20.70;75.60
11426;DHT22;5769;47.998;7.788;2022-10-19T00:09:07;20.70;75.50
11426;DHT22;5769;47.998;7.788;2022-10-19T00:11:36;20.70;75.50
11426;DHT22;5769;47.998;7.788;2022-10-19T00:14:04;20.70;75.50
11426;DHT22;5769;47.998;7.788;2022-10-19T00:16:33;20.70;75.50
11426;DHT22;5769;47.998;7.788;2022-10-19T00:19:02;20.70;75.40
11426;DHT22;5769;47.998;7.788;2022-10-19T00:21:29;20.70;75.40
11426;DHT22;5769;47.998;7.788;2022-10-19T00:23:58;20.70;75.40
11426;DHT22;5769;47.998;7.788;2022-10-19T00:26:26;20.70;75.40
11426;DHT22;5769;47.998;7.788;2022-10-19T00:28:53;20.70;75.40
11426;DHT22;5769;47.998;7.788;2022-10-19T00:31:20;20.70;75.40
11426;DHT22;5769;47.998;7.788;2022-10-19T00:33:47;20.70;75.30
11426;DHT22;5769;47.998;7.788;2022-10-19T00:36:18;20.70;75.40
11426;DHT22;5769;47.998;7.788;2022-10-19T00:38:45;20.70;75.40
11426;DHT22;5769;47.998;7.788;2022-10-19T00:41:12;20.70;75.30
11426;DHT22;5769;47.998;7.788;2022-10-19T00:43:58;20.70;75.20
11426;DHT22;5769;47.998;7.788;2022-10-19T00:46:27;20.70;75.20
11426;DHT22;5769;47.998;7.788;2022-10-19T00:48:57;20.70;75.20
11426;DHT22;5769;47.998;7.788;2022-10-19T00:51:26;20.70;75.20
11426;DHT22;5769;47.998;7.788;2022-10-19T00:53:54;20.70;75.10
11426;DHT22;5769;47.998;7.788;2022-10-19T00:56:21;20.70;75.10
11426;DHT22;5769;47.998;7.788;2022-10-19T00:58:48;20.70;75.00
11426;DHT22;5769;47.998;7.788;2022-10-19T01:01:19;20.70;75.00
11426;DHT22;5769;47.998;7.788;2022-10-19T01:03:47;20.70;75.00
11426;DHT22;5769;47.998;7.788;2022-10-19T01:06:16;20.70;75.00
11426;DHT22;5769;47.998;7.788;2022-10-19T01:08:43;20.70;75.00
11426;DHT22;5769;47.998;7.788;2022-10-19T01:11:27;20.70;75.00
11426;DHT22;5769;47.998;7.788;2022-10-19T01:14:05;20.70;75.00
11426;DHT22;5769;47.998;7.788;2022-10-19T01:16:45;20.70;74.90
11426;DHT22;5769;47.998;7.788;2022-10-19T01:19:28;20.70;74.80
11426;DHT22;5769;47.998;7.788;2022-10-19T01:22:10;20.70;74.90
11426;DHT22;5769;47.998;7.788;2022-10-19T01:24:51;20.70;74.80
11426;DHT22;5769;47.998;7.788;2022-10-19T01:27:38;20.70;74.80
11426;DHT22;5769;47.998;7.788;2022-10-19T01:30:12;20.70;74.70
11426;DHT22;5769;47.998;7.788;2022-10-19T01:32:52;20.70;74.70
11426;DHT22;5769;47.998;7.788;2022-10-19T01:35:27;20.70;74.60
11426;DHT22;5769;47.998;7.788;2022-10-19T01:38:06;20.70;74.60
11426;DHT22;5769;47.998;7.788;2022-10-19T01:40:40;20.70;74.70
11426;DHT22;5769;47.998;7.788;2022-10-19T01:43:12;20.70;74.60
11426;DHT22;5769;47.998;7.788;2022-10-19T01:45:47;20.70;74.50
11426;DHT22;5769;47.998;7.788;2022-10-19T01:48:19;20.70;74.60
11426;DHT22;5769;47.998;7.788;2022-10-19T01:50:50;20.70;74.50
11426;DHT22;5769;47.998;7.788;2022-10-19T01:53:20;20.70;74.50
11426;DHT22;5769;47.998;7.788;2022-10-19T01:55:50;20.70;74.40
11426;DHT22;5769;47.998;7.788;2022-10-19T01:58:20;20.70;74.40
11426;DHT22;5769;47.998;7.788;2022-10-19T02:00:51;20.70;74.50
11426;DHT22;5769;47.998;7.788;2022-10-19T02:03:19;20.70;74.50
11426;DHT22;5769;47.998;7.788;2022-10-19T02:05:47;20.70;74.50
11426;DHT22;5769;47.998;7.788;2022-10-19T02:08:19;20.70;74.50
11426;DHT22;5769;47.998;7.788;2022-10-19T02:10:49;20.70;74.50
11426;DHT22;5769;47.998;7.788;2022-10-19T02:13:17;20.70;74.60
11426;DHT22;5769;47.998;7.788;2022-10-19T02:15:51;20.70;74.60
11426;DHT22;5769;47.998;7.788;2022-10-19T02:18:22;20.70;74.60
11426;DHT22;5769;47.998;7.788;2022-10-19T02:20:50;20.70;74.60
11426;DHT22;5769;47.998;7.788;2022-10-19T02:23:20;20.70;74.60
11426;DHT22;5769;47.998;7.788;2022-10-19T02:25:48;20.70;74.60
11426;DHT22;5769;47.998;7.788;2022-10-19T02:28:15;20.70;74.70
11426;DHT22;5769;47.998;7.788;2022-10-19T02:30:42;20.70;74.70
11426;DHT22;5769;47.998;7.788;2022-10-19T02:33:10;20.60;74.60
11426;DHT22;5769;47.998;7.788;2022-10-19T02:35:37;20.70;74.70
11426;DHT22;5769;47.998;7.788;2022-10-19T02:38:06;20.70;74.70
11426;DHT22;5769;47.998;7.788;2022-10-19T02:40:39;20.60;74.70
11426;DHT22;5769;47.998;7.788;2022-10-19T02:43:10;20.70;74.80
11426;DHT22;5769;47.998;7.788;2022-10-19T02:45:43;20.70;74.80
11426;DHT22;5769;47.998;7.788;2022-10-19T02:48:18;20.60;74.80
11426;DHT22;5769;47.998;7.788;2022-10-19T02:50:46;20.70;74.90
11426;DHT22;5769;47.998;7.788;2022-10-19T02:53:13;20.70;74.90
11426;DHT22;5769;47.998;7.788;2022-10-19T02:55:40;20.70;74.90
11426;DHT22;5769;47.998;7.788;2022-10-19T02:58:07;20.60;74.90
11426;DHT22;5769;47.998;7.788;2022-10-19T03:00:34;20.60;74.90
11426;DHT22;5769;47.998;7.788;2022-10-19T03:03:04;20.60;74.90
11426;DHT22;5769;47.998;7.788;2022-10-19T03:05:32;20.70;75.00
11426;DHT22;5769;47.998;7.788;2022-10-19T03:07:59;20.70;75.00
11426;DHT22;5769;47.998;7.788;2022-10-19T03:10:25;20.60;75.00
11426;DHT22;5769;47.998;7.788;2022-10-19T03:12:52;20.60;75.00
11426;DHT22;5769;47.998;7.788;2022-10-19T03:15:19;20.60;75.00
11426;DHT22;5769;47.998;7.788;2022-10-19T03:17:51;20.70;75.10
11426;DHT22;5769;47.998;7.788;2022-10-19T03:20:18;20.60;75.10
11426;DHT22;5769;47.998;7.788;2022-10-19T03:22:46;20.60;75.80
11426;DHT22;5769;47.998;7.788;2022-10-19T03:25:13;20.60;75.10
11426;DHT22;5769;47.998;7.788;2022-10-19T03:27:39;20.60;75.20
11426;DHT22;5769;47.998;7.788;2022-10-19T03:30:07;20.60;75.20
11426;DHT22;5769;47.998;7.788;2022-10-19T03:32:34;20.60;75.20
11426;DHT22;5769;47.998;7.788;2022-10-19T03:35:00;20.60;75.20
11426;DHT22;5769;47.998;7.788;2022-10-19T03:37:27;20.60;75.20
11426;DHT22;5769;47.998;7.788;2022-10-19T03:39:55;20.60;75.20
11426;DHT22;5769;47.998;7.788;2022-10-19T03:42:29;20.60;75.20
11426;DHT22;5769;47.998;7.788;2022-10-19T03:44:56;20.60;75.30
11426;DHT22;5769;47.998;7.788;2022-10-19T03:47:28;20.60;75.30
11426;DHT22;5769;47.998;7.788;2022-10-19T03:49:55;20.60;75.30
11426;DHT22;5769;47.998;7.788;2022-10-19T03:52:26;20.60;75.30
11426;DHT22;5769;47.998;7.788;2022-10-19T03:55:04;20.60;75.30
11426;DHT22;5769;47.998;7.788;2022-10-19T03:57:31;20.60;75.30
11426;DHT22;5769;47.998;7.788;2022-10-19T03:59:57;20.60;75.30
11426;DHT22;5769;47.998;7.788;2022-10-19T04:02:24;20.60;75.40
11426;DHT22;5769;47.998;7.788;2022-10-19T04:04:51;20.60;75.40
11426;DHT22;5769;47.998;7.788;2022-10-19T04:07:24;20.60;75.50
11426;DHT22;5769;47.998;7.788;2022-10-19T04:09:54;20.60;75.40
11426;DHT22;5769;47.998;7.788;2022-10-19T04:12:22;20.60;75.50
11426;DHT22;5769;47.998;7.788;2022-10-19T04:14:49;20.60;75.50
11426;DHT22;5769;47.998;7.788;2022-10-19T04:17:17;20.60;75.50
11426;DHT22;5769;47.998;7.788;2022-10-19T04:19:43;20.60;75.50
11426;DHT22;5769;47.998;7.788;2022-10-19T04:22:10;20.60;75.50
11426;DHT22;5769;47.998;7.788;2022-10-19T04:24:37;20.60;75.50
11426;DHT22;5769;47.998;7.788;2022-10-19T04:27:03;20.60;75.50
11426;DHT22;5769;47.998;7.788;2022-10-19T04:29:31;20.60;75.60
11426;DHT22;5769;47.998;7.788;2022-10-19T04:31:58;20.60;75.60
11426;DHT22;5769;47.998;7.788;2022-10-19T04:34:25;20.60;75.70
11426;DHT22;5769;47.998;7.788;2022-10-19T04:36:52;20.60;75.70
11426;DHT22;5769;47.998;7.788;2022-10-19T04:39:19;20.60;75.70
11426;DHT22;5769;47.998;7.788;2022-10-19T04:41:46;20.60;75.70
11426;DHT22;5769;47.998;7.788;2022-10-19T04:44:12;20.60;75.70
11426;DHT22;5769;47.998;7.788;2022-10-19T04:46:45;20.60;75.70
11426;DHT22;5769;47.998;7.788;2022-10-19T04:49:12;20.60;75.70
11426;DHT22;5769;47.998;7.788;2022-10-19T04:51:46;20.60;75.70
11426;DHT22;5769;47.998;7.788;2022-10-19T04:54:21;20.60;75.70
11426;DHT22;5769;47.998;7.788;2022-10-19T04:56:47;20.60;75.70
11426;DHT22;5769;47.998;7.788;2022-10-19T04:59:14;20.60;75.70
11426;DHT22;5769;47.998;7.788;2022-10-19T05:01:42;20.60;75.70
11426;DHT22;5769;47.998;7.788;2022-10-19T05:04:09;20.60;75.70
11426;DHT22;5769;47.998;7.788;2022-10-19T05:06:36;20.60;75.80
11426;DHT22;5769;47.998;7.788;2022-10-19T05:09:03;20.60;75.70
11426;DHT22;5769;47.998;7.788;2022-10-19T05:11:30;20.60;75.60
11426;DHT22;5769;47.998;7.788;2022-10-19T05:13:56;20.60;75.60
11426;DHT22;5769;47.998;7.788;2022-10-19T05:16:23;20.60;75.60
11426;DHT22;5769;47.998;7.788;2022-10-19T05:18:53;20.60;75.90
11426;DHT22;5769;47.998;7.788;2022-10-19T05:21:23;20.60;75.70
11426;DHT22;5769;47.998;7.788;2022-10-19T05:23:52;20.60;75.70
11426;DHT22;5769;47.998;7.788;2022-10-19T05:26:20;20.60;75.70
11426;DHT22;5769;47.998;7.788;2022-10-19T05:28:48;20.60;75.70
11426;DHT22;5769;47.998;7.788;2022-10-19T05:31:17;20.60;75.70
11426;DHT22;5769;47.998;7.788;2022-10-19T05:33:44;20.60;75.70
11426;DHT22;5769;47.998;7.788;2022-10-19T05:36:14;20.60;75.70
11426;DHT22;5769;47.998;7.788;2022-10-19T05:38:42;20.60;75.70
11426;DHT22;5769;47.998;7.788;2022-10-19T05:41:09;20.60;75.70
11426;DHT22;5769;47.998;7.788;2022-10-19T05:43:35;20.60;75.70
11426;DHT22;5769;47.998;7.788;2022-10-19T05:46:04;20.60;75.70
11426;DHT22;5769;47.998;7.788;2022-10-19T05:48:32;20.60;75.70
11426;DHT22;5769;47.998;7.788;2022-10-19T05:50:59;20.60;75.70
11426;DHT22;5769;47.998;7.788;2022-10-19T05:53:32;20.60;75.70
11426;DHT22;5769;47.998;7.788;2022-10-19T05:55:58;20.60;75.70
11426;DHT22;5769;47.998;7.788;2022-10-19T05:58:26;20.60;75.60
11426;DHT22;5769;47.998;7.788;2022-10-19T06:00:53;20.60;75.60
11426;DHT22;5769;47.998;7.788;2022-10-19T06:03:21;20.60;75.60
11426;DHT22;5769;47.998;7.788;2022-10-19T06:05:48;20.60;75.60
11426;DHT22;5769;47.998;7.788;2022-10-19T06:08:16;20.60;75.60
11426;DHT22;5769;47.998;7.788;2022-10-19T06:10:45;20.60;75.60
11426;DHT22;5769;47.998;7.788;2022-10-19T06:13:13;20.60;76.30
11426;DHT22;5769;47.998;7.788;2022-10-19T06:15:40;20.50;75.60
11426;DHT22;5769;47.998;7.788;2022-10-19T06:18:08;20.60;75.60
11426;DHT22;5769;47.998;7.788;2022-10-19T06:20:35;20.60;75.60
11426;DHT22;5769;47.998;7.788;2022-10-19T06:23:02;20.60;75.60
11426;DHT22;5769;47.998;7.788;2022-10-19T06:25:30;20.60;75.60
11426;DHT22;5769;47.998;7.788;2022-10-19T06:27:59;20.60;75.60
11426;DHT22;5769;47.998;7.788;2022-10-19T06:30:25;20.60;75.60
11426;DHT22;5769;47.998;7.788;2022-10-19T06:32:55;20.60;75.60
11426;DHT22;5769;47.998;7.788;2022-10-19T06:35:23;20.60;75.60
11426;DHT22;5769;47.998;7.788;2022-10-19T06:37:50;20.60;75.60
11426;DHT22;5769;47.998;7.788;2022-10-19T06:40:17;20.60;75.60
11426;DHT22;5769;47.998;7.788;2022-10-19T06:42:43;20.60;75.60
11426;DHT22;5769;47.998;7.788;2022-10-19T06:45:12;20.50;75.50
11426;DHT22;5769;47.998;7.788;2022-10-19T06:47:39;20.60;75.60
11426;DHT22;5769;47.998;7.788;2022-10-19T06:50:06;20.60;75.60
11426;DHT22;5769;47.998;7.788;2022-10-19T06:52:33;20.50;75.50
11426;DHT22;5769;47.998;7.788;2022-10-19T06:55:00;20.60;75.60
11426;DHT22;5769;47.998;7.788;2022-10-19T06:57:27;20.60;75.60
11426;DHT22;5769;47.998;7.788;2022-10-19T06:59:54;20.60;75.60
11426;DHT22;5769;47.998;7.788;2022-10-19T07:02:22;20.60;75.60
11426;DHT22;5769;47.998;7.788;2022-10-19T07:04:49;20.60;75.60
11426;DHT22;5769;47.998;7.788;2022-10-19T07:07:16;20.60;75.60
11426;DHT22;5769;47.998;7.788;2022-10-19T07:09:42;20.60;75.60
11426;DHT22;5769;47.998;7.788;2022-10-19T07:12:09;20.60;75.60
11426;DHT22;5769;47.998;7.788;2022-10-19T07:14:36;20.60;75.60
11426;DHT22;5769;47.998;7.788;2022-10-19T07:17:04;20.60;75.60
11426;DHT22;5769;47.998;7.788;2022-10-19T07:19:34;20.60;75.70
11426;DHT22;5769;47.998;7.788;2022-10-19T07:22:00;20.60;75.70
11426;DHT22;5769;47.998;7.788;2022-10-19T07:24:27;20.60;75.70
11426;DHT22;5769;47.998;7.788;2022-10-19T07:26:55;20.60;75.70
11426;DHT22;5769;47.998;7.788;2022-10-19T07:29:22;20.50;75.70
11426;DHT22;5769;47.998;7.788;2022-10-19T07:31:48;20.60;75.70
11426;DHT22;5769;47.998;7.788;2022-10-19T07:34:15;20.60;75.80
11426;DHT22;5769;47.998;7.788;2022-10-19T07:36:45;20.60;75.70
11426;DHT22;5769;47.998;7.788;2022-10-19T07:39:12;20.60;75.60
11426;DHT22;5769;47.998;7.788;2022-10-19T07:41:43;20.60;75.70
11426;DHT22;5769;47.998;7.788;2022-10-19T07:44:13;20.70;76.10
11426;DHT22;5769;47.998;7.788;2022-10-19T07:46:42;20.70;76.10
11426;DHT22;5769;47.998;7.788;2022-10-19T07:49:10;20.70;76.20
11426;DHT22;5769;47.998;7.788;2022-10-19T07:51:39;20.70;76.20
11426;DHT22;5769;47.998;7.788;2022-10-19T07:54:07;20.70;76.20
11426;DHT22;5769;47.998;7.788;2022-10-19T07:56:37;20.70;76.20
11426;DHT22;5769;47.998;7.788;2022-10-19T07:59:10;20.70;76.10
11426;DHT22;5769;47.998;7.788;2022-10-19T08:01:39;20.70;76.00
11426;DHT22;5769;47.998;7.788;2022-10-19T08:04:09;20.70;75.80
11426;DHT22;5769;47.998;7.788;2022-10-19T08:06:37;20.80;76.00
11426;DHT22;5769;47.998;7.788;2022-10-19T08:09:04;20.80;75.90
11426;DHT22;5769;47.998;7.788;2022-10-19T08:11:34;20.70;75.80
11426;DHT22;5769;47.998;7.788;2022-10-19T08:14:01;20.80;75.90
11426;DHT22;5769;47.998;7.788;2022-10-19T08:16:30;20.80;75.80
11426;DHT22;5769;47.998;7.788;2022-10-19T08:19:00;20.80;75.80
11426;DHT22;5769;47.998;7.788;2022-10-19T08:21:28;20.80;75.60
11426;DHT22;5769;47.998;7.788;2022-10-19T08:23:55;20.80;75.60
11426;DHT22;5769;47.998;7.788;2022-10-19T08:26:22;20.80;75.40
11426;DHT22;5769;47.998;7.788;2022-10-19T08:28:52;20.80;75.20
11426;DHT22;5769;47.998;7.788;2022-10-19T08:31:20;20.80;75.20
11426;DHT22;5769;47.998;7.788;2022-10-19T08:33:50;20.80;75.20
11426;DHT22;5769;47.998;7.788;2022-10-19T08:36:18;20.80;75.30
11426;DHT22;5769;47.998;7.788;2022-10-19T08:38:46;20.90;75.30
11426;DHT22;5769;47.998;7.788;2022-10-19T08:41:32;20.90;75.20
11426;DHT22;5769;47.998;7.788;2022-10-19T08:44:18;20.90;75.20
11426;DHT22;5769;47.998;7.788;2022-10-19T08:46:57;20.90;75.10
11426;DHT22;5769;47.998;7.788;2022-10-19T08:49:30;20.90;74.90
11426;DHT22;5769;47.998;7.788;2022-10-19T08:51:59;20.90;74.90
11426;DHT22;5769;47.998;7.788;2022-10-19T08:54:45;20.90;74.90
11426;DHT22;5769;47.998;7.788;2022-10-19T08:57:24;20.90;74.90
11426;DHT22;5769;47.998;7.788;2022-10-19T09:00:02;20.90;74.90
11426;DHT22;5769;47.998;7.788;2022-10-19T09:02:42;20.90;74.80
11426;DHT22;5769;47.998;7.788;2022-10-19T09:05:22;20.90;74.80
11426;DHT22;5769;47.998;7.788;2022-10-19T09:07:55;20.90;74.90
11426;DHT22;5769;47.998;7.788;2022-10-19T09:10:25;20.90;74.60
11426;DHT22;5769;47.998;7.788;2022-10-19T09:12:58;20.90;74.60
11426;DHT22;5769;47.998;7.788;2022-10-19T09:15:33;20.90;74.60
11426;DHT22;5769;47.998;7.788;2022-10-19T09:18:02;20.90;74.90
11426;DHT22;5769;47.998;7.788;2022-10-19T09:20:33;20.90;74.80
11426;DHT22;5769;47.998;7.788;2022-10-19T09:23:06;21.00;74.70
11426;DHT22;5769;47.998;7.788;2022-10-19T09:25:40;20.90;74.60
11426;DHT22;5769;47.998;7.788;2022-10-19T09:28:30;21.00;74.70
11426;DHT22;5769;47.998;7.788;2022-10-19T09:31:01;20.90;74.60
11426;DHT22;5769;47.998;7.788;2022-10-19T09:33:30;21.00;74.70
11426;DHT22;5769;47.998;7.788;2022-10-19T09:36:01;21.00;74.70
11426;DHT22;5769;47.998;7.788;2022-10-19T09:38:29;21.00;74.70
11426;DHT22;5769;47.998;7.788;2022-10-19T09:40:59;21.00;74.60
11426;DHT22;5769;47.998;7.788;2022-10-19T09:43:33;21.00;74.70
11426;DHT22;5769;47.998;7.788;2022-10-19T09:46:07;21.00;74.70
11426;DHT22;5769;47.998;7.788;2022-10-19T09:48:40;21.00;74.70
11426;DHT22;5769;47.998;7.788;2022-10-19T09:51:12;21.00;74.50
11426;DHT22;5769;47.998;7.788;2022-10-19T09:53:43;21.00;74.50
11426;DHT22;5769;47.998;7.788;2022-10-19T09:56:18;21.00;74.70
11426;DHT22;5769;47.998;7.788;2022-10-19T09:58:46;21.00;74.60
11426;DHT22;5769;47.998;7.788;2022-10-19T10:01:29;21.00;74.60
11426;DHT22;5769;47.998;7.788;2022-10-19T10:04:04;21.00;74.70
11426;DHT22;5769;47.998;7.788;2022-10-19T10:06:32;21.00;74.60
11426;DHT22;5769;47.998;7.788;2022-10-19T10:08:59;21.00;74.60
11426;DHT22;5769;47.998;7.788;2022-10-19T10:11:27;21.00;74.50
11426;DHT22;5769;47.998;7.788;2022-10-19T10:13:56;21.00;74.60
11426;DHT22;5769;47.998;7.788;2022-10-19T10:16:28;21.00;74.70
11426;DHT22;5769;47.998;7.788;2022-10-19T10:18:59;21.00;74.60
11426;DHT22;5769;47.998;7.788;2022-10-19T10:21:27;21.00;74.50
11426;DHT22;5769;47.998;7.788;2022-10-19T10:24:02;21.00;74.50
11426;DHT22;5769;47.998;7.788;2022-10-19T10:26:30;21.00;74.50
11426;DHT22;5769;47.998;7.788;2022-10-19T10:28:57;21.00;74.60
11426;DHT22;5769;47.998;7.788;2022-10-19T10:31:26;21.00;74.70
11426;DHT22;5769;47.998;7.788;2022-10-19T10:33:57;21.00;74.40
11426;DHT22;5769;47.998;7.788;2022-10-19T10:36:27;21.00;74.50
11426;DHT22;5769;47.998;7.788;2022-10-19T10:38:58;21.00;74.70
11426;DHT22;5769;47.998;7.788;2022-10-19T10:41:28;21.10;74.90
11426;DHT22;5769;47.998;7.788;2022-10-19T10:43:58;21.00;75.00
11426;DHT22;5769;47.998;7.788;2022-10-19T10:46:32;21.10;75.30
11426;DHT22;5769;47.998;7.788;2022-10-19T10:49:02;21.10;75.30
11426;DHT22;5769;47.998;7.788;2022-10-19T10:51:32;21.10;75.20
11426;DHT22;5769;47.998;7.788;2022-10-19T10:54:11;21.10;75.20
11426;DHT22;5769;47.998;7.788;2022-10-19T10:56:42;21.10;75.10
11426;DHT22;5769;47.998;7.788;2022-10-19T10:59:11;21.10;75.00
11426;DHT22;5769;47.998;7.788;2022-10-19T11:01:46;21.10;74.40
11426;DHT22;5769;47.998;7.788;2022-10-19T11:04:20;21.10;74.30
11426;DHT22;5769;47.998;7.788;2022-10-19T11:06:53;21.10;74.20
11426;DHT22;5769;47.998;7.788;2022-10-19T11:09:25;21.10;74.20
11426;DHT22;5769;47.998;7.788;2022-10-19T11:11:56;21.10;74.40
11426;DHT22;5769;47.998;7.788;2022-10-19T11:14:31;21.10;74.20
11426;DHT22;5769;47.998;7.788;2022-10-19T11:17:04;21.10;74.40
11426;DHT22;5769;47.998;7.788;2022-10-19T11:19:34;21.10;74.40
11426;DHT22;5769;47.998;7.788;2022-10-19T11:22:10;21.10;74.50
11426;DHT22;5769;47.998;7.788;2022-10-19T11:24:49;21.10;74.20
11426;DHT22;5769;47.998;7.788;2022-10-19T11:27:26;21.10;73.80
11426;DHT22;5769;47.998;7.788;2022-10-19T11:30:02;21.10;73.80
11426;DHT22;5769;47.998;7.788;2022-10-19T11:32:44;21.10;73.80
11426;DHT22;5769;47.998;7.788;2022-10-19T11:35:28;21.10;73.90
11426;DHT22;5769;47.998;7.788;2022-10-19T11:38:07;21.00;73.80
11426;DHT22;5769;47.998;7.788;2022-10-19T11:40:37;21.00;73.80
11426;DHT22;5769;47.998;7.788;2022-10-19T11:43:11;21.00;73.70
11426;DHT22;5769;47.998;7.788;2022-10-19T11:45:47;21.10;73.80
11426;DHT22;5769;47.998;7.788;2022-10-19T11:48:40;21.00;73.70
11426;DHT22;5769;47.998;7.788;2022-10-19T11:51:17;21.00;73.80
11426;DHT22;5769;47.998;7.788;2022-10-19T11:53:54;21.00;74.00
11426;DHT22;5769;47.998;7.788;2022-10-19T11:56:29;21.00;74.00
11426;DHT22;5769;47.998;7.788;2022-10-19T11:59:02;21.00;73.90
11426;DHT22;5769;47.998;7.788;2022-10-19T12:01:41;21.00;73.90
11426;DHT22;5769;47.998;7.788;2022-10-19T12:04:25;21.00;73.90
11426;DHT22;5769;47.998;7.788;2022-10-19T12:07:00;21.10;74.00
11426;DHT22;5769;47.998;7.788;2022-10-19T12:09:38;21.00;73.90
11426;DHT22;5769;47.998;7.788;2022-10-19T12:12:22;21.00;74.00
11426;DHT22;5769;47.998;7.788;2022-10-19T12:14:53;21.00;74.00
11426;DHT22;5769;47.998;7.788;2022-10-19T12:17:24;21.00;74.00
11426;DHT22;5769;47.998;7.788;2022-10-19T12:19:57;21.00;74.00
11426;DHT22;5769;47.998;7.788;2022-10-19T12:22:27;21.00;74.00
11426;DHT22;5769;47.998;7.788;2022-10-19T12:24:57;21.00;74.00
11426;DHT22;5769;47.998;7.788;2022-10-19T12:27:29;21.00;74.00
11426;DHT22;5769;47.998;7.788;2022-10-19T12:30:02;21.00;74.00
11426;DHT22;5769;47.998;7.788;2022-10-19T12:32:36;21.00;74.00
11426;DHT22;5769;47.998;7.788;2022-10-19T12:35:16;21.00;74.10
11426;DHT22;5769;47.998;7.788;2022-10-19T12:37:50;21.00;74.90
11426;DHT22;5769;47.998;7.788;2022-10-19T12:40:26;21.00;74.20
11426;DHT22;5769;47.998;7.788;2022-10-19T12:42:59;21.00;74.20
11426;DHT22;5769;47.998;7.788;2022-10-19T12:45:30;21.00;74.50
11426;DHT22;5769;47.998;7.788;2022-10-19T12:48:16;21.10;74.50
11426;DHT22;5769;47.998;7.788;2022-10-19T12:51:13;21.10;74.50
11426;DHT22;5769;47.998;7.788;2022-10-19T12:53:42;21.10;74.60
11426;DHT22;5769;47.998;7.788;2022-10-19T12:56:16;21.10;74.80
11426;DHT22;5769;47.998;7.788;2022-10-19T12:58:48;21.10;74.90
11426;DHT22;5769;47.998;7.788;2022-10-19T13:01:19;21.10;74.90
11426;DHT22;5769;47.998;7.788;2022-10-19T13:03:49;21.10;75.00
11426;DHT22;5769;47.998;7.788;2022-10-19T13:06:29;21.10;75.10
11426;DHT22;5769;47.998;7.788;2022-10-19T13:08:59;21.20;75.20
11426;DHT22;5769;47.998;7.788;2022-10-19T13:11:27;21.10;75.10
11426;DHT22;5769;47.998;7.788;2022-10-19T13:13:57;21.20;75.20
11426;DHT22;5769;47.998;7.788;2022-10-19T13:16:39;21.20;75.40
11426;DHT22;5769;47.998;7.788;2022-10-19T13:19:20;21.20;75.30
11426;DHT22;5769;47.998;7.788;2022-10-19T13:21:51;21.20;75.40
11426;DHT22;5769;47.998;7.788;2022-10-19T13:24:32;21.20;75.40
11426;DHT22;5769;47.998;7.788;2022-10-19T13:27:27;21.20;75.40
11426;DHT22;5769;47.998;7.788;2022-10-19T13:29:53;21.20;76.10
11426;DHT22;5769;47.998;7.788;2022-10-19T13:32:41;21.20;75.40
11426;DHT22;5769;47.998;7.788;2022-10-19T13:35:36;21.20;75.40
11426;DHT22;5769;47.998;7.788;2022-10-19T13:38:22;21.20;75.10
11426;DHT22;5769;47.998;7.788;2022-10-19T13:41:14;21.20;75.00
11426;DHT22;5769;47.998;7.788;2022-10-19T13:43:59;21.20;75.20
11426;DHT22;5769;47.998;7.788;2022-10-19T13:46:47;21.20;75.00
11426;DHT22;5769;47.998;7.788;2022-10-19T13:49:46;21.20;74.90
11426;DHT22;5769;47.998;7.788;2022-10-19T13:55:43;21.20;74.90
11426;DHT22;5769;47.998;7.788;2022-10-19T13:58:30;21.20;74.90
11426;DHT22;5769;47.998;7.788;2022-10-19T14:01:09;21.20;75.00
11426;DHT22;5769;47.998;7.788;2022-10-19T14:03:57;21.20;74.90
11426;DHT22;5769;47.998;7.788;2022-10-19T14:06:32;21.10;74.70
11426;DHT22;5769;47.998;7.788;2022-10-19T14:09:28;21.20;75.00
11426;DHT22;5769;47.998;7.788;2022-10-19T14:12:04;21.20;75.10
11426;DHT22;5769;47.998;7.788;2022-10-19T14:14:38;21.20;75.60
11426;DHT22;5769;47.998;7.788;2022-10-19T14:17:14;21.20;75.60
11426;DHT22;5769;47.998;7.788;2022-10-19T14:19:43;21.20;75.70
11426;DHT22;5769;47.998;7.788;2022-10-19T14:22:28;21.20;75.60
11426;DHT22;5769;47.998;7.788;2022-10-19T14:25:00;21.20;75.40
11426;DHT22;5769;47.998;7.788;2022-10-19T14:27:30;21.20;75.50
11426;DHT22;5769;47.998;7.788;2022-10-19T14:29:57;21.20;75.40
11426;DHT22;5769;47.998;7.788;2022-10-19T14:32:25;21.20;75.40
11426;DHT22;5769;47.998;7.788;2022-10-19T14:34:53;21.20;76.10
11426;DHT22;5769;47.998;7.788;2022-10-19T14:37:24;21.20;75.40
11426;DHT22;5769;47.998;7.788;2022-10-19T14:40:04;21.20;75.40
11426;DHT22;5769;47.998;7.788;2022-10-19T14:42:41;21.20;75.40
11426;DHT22;5769;47.998;7.788;2022-10-19T14:45:12;21.20;75.50
11426;DHT22;5769;47.998;7.788;2022-10-19T14:47:55;21.20;75.50
11426;DHT22;5769;47.998;7.788;2022-10-19T14:50:26;21.20;75.50
11426;DHT22;5769;47.998;7.788;2022-10-19T14:52:56;21.20;75.60
11426;DHT22;5769;47.998;7.788;2022-10-19T14:55:26;21.20;75.50
11426;DHT22;5769;47.998;7.788;2022-10-19T14:57:59;21.20;75.50
11426;DHT22;5769;47.998;7.788;2022-10-19T15:00:31;21.20;75.60
11426;DHT22;5769;47.998;7.788;2022-10-19T15:03:00;21.20;75.60
11426;DHT22;5769;47.998;7.788;2022-10-19T15:05:31;21.20;75.60
11426;DHT22;5769;47.998;7.788;2022-10-19T15:08:05;21.20;75.60
11426;DHT22;5769;47.998;7.788;2022-10-19T15:10:40;21.20;75.70
11426;DHT22;5769;47.998;7.788;2022-10-19T15:13:21;21.30;75.70
11426;DHT22;5769;47.998;7.788;2022-10-19T15:15:50;21.20;75.60
11426;DHT22;5769;47.998;7.788;2022-10-19T15:18:18;21.30;75.70
11426;DHT22;5769;47.998;7.788;2022-10-19T15:20:59;21.20;75.60
11426;DHT22;5769;47.998;7.788;2022-10-19T15:23:40;21.20;75.70
11426;DHT22;5769;47.998;7.788;2022-10-19T15:26:19;21.20;75.70
11426;DHT22;5769;47.998;7.788;2022-10-19T15:28:48;21.30;75.90
11426;DHT22;5769;47.998;7.788;2022-10-19T15:31:17;21.20;75.70
11426;DHT22;5769;47.998;7.788;2022-10-19T15:33:47;21.30;75.70
11426;DHT22;5769;47.998;7.788;2022-10-19T15:36:16;21.20;75.70
11426;DHT22;5769;47.998;7.788;2022-10-19T15:38:45;21.30;75.90
11426;DHT22;5769;47.998;7.788;2022-10-19T15:41:17;21.30;75.80
11426;DHT22;5769;47.998;7.788;2022-10-19T15:43:49;21.30;75.80
11426;DHT22;5769;47.998;7.788;2022-10-19T15:46:28;21.30;75.80
11426;DHT22;5769;47.998;7.788;2022-10-19T15:49:00;21.30;76.50
11426;DHT22;5769;47.998;7.788;2022-10-19T15:51:42;21.30;75.80
11426;DHT22;5769;47.998;7.788;2022-10-19T15:54:10;21.30;75.90
11426;DHT22;5769;47.998;7.788;2022-10-19T15:56:40;21.30;75.90
11426;DHT22;5769;47.998;7.788;2022-10-19T15:59:14;21.30;75.80
11426;DHT22;5769;47.998;7.788;2022-10-19T16:01:42;21.30;75.80
11426;DHT22;5769;47.998;7.788;2022-10-19T16:04:10;21.30;75.90
11426;DHT22;5769;47.998;7.788;2022-10-19T16:06:41;21.30;75.90
11426;DHT22;5769;47.998;7.788;2022-10-19T16:09:15;21.30;75.60
11426;DHT22;5769;47.998;7.788;2022-10-19T16:11:42;21.30;75.70
11426;DHT22;5769;47.998;7.788;2022-10-19T16:14:11;21.30;76.30
11426;DHT22;5769;47.998;7.788;2022-10-19T16:16:37;21.30;76.00